Lethbridge County Airport
CYQL : now visible

Airfield :











YOU CAN JOIN US ON...

 
LOGIN :

Register | Disclaimer

   EN    FR    IT 

 









Legend :    VFR   Marginal VFR   IFR   Intensive IFR   Very Intensive IFR
Visi :
Ceiling :
>= 8 km
>= 3000ft
5 to 8 km
1000 to 3000 ft
1500m to 5 km
500 to 1000 ft
800 to 1500m
200 to 500 ft
< 800m
< 200 ft
Symbols :   Thunderstorms  Fog  Heavy snow  Heavy precipitations  Wind > 20 kt






- Airport Elevation : 3047 ft
- IATA code : YQL


CYQL - Lethbridge County

CURRENT METAR :
  • 072000Z 25023G32KT 60SM FEW075 SCT100 21/05 A2986 RMK AC2AC1 SLP103 DENSITY ALT 4600FT

EXPIRED METARs :
  • 071900Z 27016G24KT 60SM SCT065 SCT080 19/04 A2988 RMK SC3AC1 SLP111 DENSITY ALT 4300FT
  • 071800Z VRB02KT 60SM SCT065 BKN085 17/09 A2988 RMK SC4AC1 SLP118 DENSITY ALT 4000FT

TAF TAF CYQL
Valid from the 07 at 18:00 until the 08 at 06:00 UTC


071738Z 0718/0806 03008KT P6SM BKN090
BECMG 0718/0720 26020G30KT
FM072000 26020G30KT P6SM SKC
BECMG 0800/0802 26015G25KT RMK NXT FCST BY 080000Z
CZEG FIR / North America



MET'MAP, your aeronautical weather chart ! - Copyright ORBIFLY December 2007 - Disclaimer

ORBIFLY MET'MAP TEAM :

Programming & Development : Alexandra Zaïnal
Concept & original design : Baudouin d'Aumeries
Assistance for programming : Marc-Olivier Méhu
Technical & hardware support : Manuel Goepfert

Contact : metmap@orbifly.com




SOURCES & CREDITS :

   NOAA       Earth
Advisory